General Aviation Weather

Text Reports

Enter one or more of the following location identifiers separated by a space:

Zip Code, Four-Character ICAO or Three-Character IATA airport codes.

METAR - Aviation Routine Weather Report
VTSM - Samui,
Updated at 3:30 PM GMT on July 28, 2016 (10:30 PM ICT):
METAR VTSM 281530Z 30013KT 9999 FEW020 27/24 Q1009 A2982
TAF - Terminal Area Forecast
VTSM - Samui,
Updated at 3:30 PM GMT on July 28, 2016 (10:30 PM ICT):
TAF VTSM 281700Z 2818/2918 00000KT 9999 FEW020 SCT100
        TEMPO 2820/2902 VRB15KT 6000 -TSRA FEW016CB SCT018 BKN100
         BECMG 2901/2903 32015KT
         TEMPO 2906/2912 32015G25KT 6000 -TSRA FEW016CB SCT018 BKN100
        BECMG 2912/2914 30005KT=
Decoded:
ID: VTSM
REPORT TIME: 28 17: 0
VALID TIME: 28 July AT 18:00Z to 29 July AT 18:00Z.
INITIAL WX
   WINDS: CALM
   CLOUDS: 20 FEW
   CLOUDS: 100 SCT
TEMPORARY WX FROM 20Z TO 02Z
   WIND: VARIABLE AT 15
   VISIBILITY: 3.7 MILES
   WEATHER: -TSRA
   CLOUDS: 16 FEW WITH CB
   CLOUDS: 18 SCT
   CLOUDS: 100 BKN
WX BECOMING FROM 01Z TO 03Z
   WINDS: 320 AT 15
TEMPORARY WX FROM 06Z TO 12Z
   WINDS: 320 AT 15 GUST 25
   VISIBILITY: 3.7 MILES
   WEATHER: -TSRA
   CLOUDS: 16 FEW WITH CB
   CLOUDS: 18 SCT
   CLOUDS: 100 BKN
WX BECOMING FROM 12Z TO 14Z
   WINDS: 300 AT 5
   COMMENTS: = 

CORRECTION
INITIAL WX
   WEATHER: SCEL
   COMMENTS: 281742Z 2818/2918 21005KT CAVOK TX18/2819Z TN03/2910Z 
WX BECOMING FROM 00Z TO 02Z
   WINDS: 150 AT 5
WX BECOMING FROM 05Z TO 07Z
   VISIBILITY: 3.1 MILES
   WEATHER: HZ_NSC
TEMPORARY WX FROM 08Z TO 13Z
   WIND: VARIABLE AT 2
   VISIBILITY: 0.4 MILES
   WEATHER: BCFG
   CLOUDS: 3 SCT
WX BECOMING FROM 15Z TO 17Z
   VISIBILITY: 2.5 MILES
   COMMENTS: BR= 

PIREP - Pilot Weather Report
VTSM - Samui,
Updated at 3:30 PM GMT on July 28, 2016 (10:30 PM ICT):
No PIREP is currently available for this location.
AIRMET - Airmens Meteorological Information
VTSM - Samui,
Updated at 3:30 PM GMT on July 28, 2016 (10:30 PM ICT):
No AIRMET is currently available for this location.
SIGMET - Significant Meteorological Information
VTSM - Samui,
Updated at 3:30 PM GMT on July 28, 2016 (10:30 PM ICT):
No SIGMET is currently available for this location.
NOTAM - Notice to Airmen
VTSM - Samui,
Updated at 3:30 PM GMT on July 28, 2016 (10:30 PM ICT):
No NOTAM is currently available for this location.
Forecast Area
VTSM - Samui,
Updated at 3:30 PM GMT on July 28, 2016 (10:30 PM ICT):
No NOTAM is currently available for this location.
Aviation Weather Maps